<?xml version='1.0' encoding='UTF-8'?>
<gpx xmlns="http://www.topografix.com/GPX/1/1" creator="www.balnam.be" version="1.1" xmlns:xsi="http://www.w3.org/2001/XMLSchema-instance" xsi:schemaLocation="http://www.topografix.com/GPX/1/1 http://www.topografix.com/GPX/1/1/gpx.xsd">
<trk>
<name>hbtld11</name>
<cmt>b</cmt>
<desc>Lesdain Sentier n°11 </desc>
<link href="https://chemins.be/lesdain/sentier/11"/><trkseg>
<trkpt lat="50.522122" lon="3.388360"><time>2026-05-02T18:12:19Z</time></trkpt>
<trkpt lat="50.522200" lon="3.388773"><time>2026-05-02T18:22:19Z</time></trkpt>
</trkseg></trk>
<trk>
<name>hbtld11</name>
<cmt>v</cmt>
<desc>Lesdain Sentier n°11 </desc>
<link href="https://chemins.be/lesdain/sentier/11"/><trkseg>
<trkpt lat="50.522200" lon="3.388773"><time>2026-05-02T18:22:19Z</time></trkpt>
<trkpt lat="50.522394" lon="3.389793"><time>2026-05-02T18:32:19Z</time></trkpt>
<trkpt lat="50.522165" lon="3.391037"><time>2026-05-02T18:42:19Z</time></trkpt>
<trkpt lat="50.521458" lon="3.392495"><time>2026-05-02T18:52:19Z</time></trkpt>
<trkpt lat="50.520474" lon="3.395037"><time>2026-05-02T19:02:19Z</time></trkpt>
</trkseg>
</trk>
<trk>
<name>hbtld12</name>
<cmt>v</cmt>
<desc>Lesdain Sentier n°12 </desc>
<link href="https://chemins.be/lesdain/sentier/12"/><trkseg>
<trkpt lat="50.525952" lon="3.388033"><time>2026-05-02T18:12:19Z</time></trkpt>
<trkpt lat="50.525810" lon="3.389218"><time>2026-05-02T18:22:19Z</time></trkpt>
<trkpt lat="50.525831" lon="3.390009"><time>2026-05-02T18:32:19Z</time></trkpt>
<trkpt lat="50.525876" lon="3.391089"><time>2026-05-02T18:42:19Z</time></trkpt>
<trkpt lat="50.526470" lon="3.392139"><time>2026-05-02T18:52:19Z</time></trkpt>
<trkpt lat="50.526420" lon="3.392283"><time>2026-05-02T19:02:19Z</time></trkpt>
</trkseg>
</trk>
<trk>
<name>hbtld14</name>
<cmt>v</cmt>
<desc>Lesdain Sentier n°14 </desc>
<link href="https://chemins.be/lesdain/sentier/14"/><trkseg>
<trkpt lat="50.518967" lon="3.389801"><time>2026-05-02T18:12:19Z</time></trkpt>
<trkpt lat="50.519562" lon="3.390128"><time>2026-05-02T18:22:19Z</time></trkpt>
<trkpt lat="50.520359" lon="3.390188"><time>2026-05-02T18:32:19Z</time></trkpt>
</trkseg></trk>
<trk>
<name>hbtld14</name>
<cmt>d</cmt>
<desc>Lesdain Sentier n°14 </desc>
<link href="https://chemins.be/lesdain/sentier/14"/><trkseg>
<trkpt lat="50.520359" lon="3.390188"><time>2026-05-02T18:32:19Z</time></trkpt>
<trkpt lat="50.520876" lon="3.390409"><time>2026-05-02T18:42:19Z</time></trkpt>
<trkpt lat="50.522220" lon="3.390986"><time>2026-05-02T18:52:19Z</time></trkpt>
</trkseg></trk>
<trk>
<name>hbtld14</name>
<cmt>v</cmt>
<desc>Lesdain Sentier n°14 </desc>
<link href="https://chemins.be/lesdain/sentier/14"/><trkseg>
<trkpt lat="50.522220" lon="3.390986"><time>2026-05-02T18:52:19Z</time></trkpt>
<trkpt lat="50.524429" lon="3.390186"><time>2026-05-02T19:02:19Z</time></trkpt>
<trkpt lat="50.524405" lon="3.389306"><time>2026-05-02T19:12:19Z</time></trkpt>
</trkseg></trk>
<trk>
<name>hbtld14</name>
<cmt>d</cmt>
<desc>Lesdain Sentier n°14 </desc>
<link href="https://chemins.be/lesdain/sentier/14"/><trkseg>
<trkpt lat="50.524405" lon="3.389306"><time>2026-05-02T19:12:19Z</time></trkpt>
<trkpt lat="50.525196" lon="3.389387"><time>2026-05-02T19:22:19Z</time></trkpt>
<trkpt lat="50.525856" lon="3.389190"><time>2026-05-02T19:32:19Z</time></trkpt>
<trkpt lat="50.526986" lon="3.388323"><time>2026-05-02T19:42:19Z</time></trkpt>
</trkseg>
</trk>
<trk>
<name>hbtld15</name>
<cmt>v</cmt>
<desc>Lesdain Sentier n°15 </desc>
<link href="https://chemins.be/lesdain/sentier/15"/><trkseg>
<trkpt lat="50.524419" lon="3.390171"><time>2026-05-02T18:12:19Z</time></trkpt>
<trkpt lat="50.524490" lon="3.390969"><time>2026-05-02T18:22:19Z</time></trkpt>
<trkpt lat="50.524255" lon="3.391889"><time>2026-05-02T18:32:19Z</time></trkpt>
<trkpt lat="50.522880" lon="3.395895"><time>2026-05-02T18:42:19Z</time></trkpt>
</trkseg>
</trk>
<trk>
<name>hbtld16</name>
<cmt>v</cmt>
<desc>Lesdain Sentier n°16 </desc>
<link href="https://chemins.be/lesdain/sentier/16"/><trkseg>
<trkpt lat="50.523813" lon="3.387460"><time>2026-05-02T18:12:19Z</time></trkpt>
<trkpt lat="50.523796" lon="3.389310"><time>2026-05-02T18:22:19Z</time></trkpt>
<trkpt lat="50.524406" lon="3.389315"><time>2026-05-02T18:32:19Z</time></trkpt>
</trkseg>
</trk>
<trk>
<name>hbtld17</name>
<cmt>v</cmt>
<desc>Lesdain Sentier n°17 Rue du Paradis</desc>
<link href="https://chemins.be/lesdain/sentier/17"/><trkseg>
<trkpt lat="50.523158" lon="3.386911"><time>2026-05-02T18:12:19Z</time></trkpt>
<trkpt lat="50.523313" lon="3.386109"><time>2026-05-02T18:22:19Z</time></trkpt>
<trkpt lat="50.523823" lon="3.383868"><time>2026-05-02T18:32:19Z</time></trkpt>
</trkseg>
</trk>
<trk>
<name>hbtld18</name>
<cmt>v</cmt>
<desc>Lesdain Sentier n°18 </desc>
<link href="https://chemins.be/lesdain/sentier/18"/><trkseg>
<trkpt lat="50.523169" lon="3.386868"><time>2026-05-02T18:12:19Z</time></trkpt>
<trkpt lat="50.522557" lon="3.386508"><time>2026-05-02T18:22:19Z</time></trkpt>
<trkpt lat="50.521459" lon="3.386153"><time>2026-05-02T18:32:19Z</time></trkpt>
<trkpt lat="50.521230" lon="3.386035"><time>2026-05-02T18:42:19Z</time></trkpt>
</trkseg>
</trk>
<trk>
<name>hbtld19</name>
<cmt>v</cmt>
<desc>Lesdain Sentier n°19 </desc>
<link href="https://chemins.be/lesdain/sentier/19"/><trkseg>
<trkpt lat="50.514787" lon="3.381115"><time>2026-05-02T18:12:19Z</time></trkpt>
<trkpt lat="50.513360" lon="3.382190"><time>2026-05-02T18:22:19Z</time></trkpt>
<trkpt lat="50.513551" lon="3.383196"><time>2026-05-02T18:32:19Z</time></trkpt>
<trkpt lat="50.514176" lon="3.386162"><time>2026-05-02T18:42:19Z</time></trkpt>
<trkpt lat="50.514388" lon="3.386815"><time>2026-05-02T18:52:19Z</time></trkpt>
<trkpt lat="50.514577" lon="3.387395"><time>2026-05-02T19:02:19Z</time></trkpt>
</trkseg></trk>
<trk>
<name>hbtld19</name>
<cmt>d</cmt>
<desc>Lesdain Sentier n°19 </desc>
<link href="https://chemins.be/lesdain/sentier/19"/><trkseg>
<trkpt lat="50.514577" lon="3.387395"><time>2026-05-02T19:02:19Z</time></trkpt>
<trkpt lat="50.514906" lon="3.388362"><time>2026-05-02T19:12:19Z</time></trkpt>
<trkpt lat="50.515160" lon="3.388645"><time>2026-05-02T19:22:19Z</time></trkpt>
</trkseg></trk>
<trk>
<name>hbtld19</name>
<cmt>v</cmt>
<desc>Lesdain Sentier n°19 </desc>
<link href="https://chemins.be/lesdain/sentier/19"/><trkseg>
<trkpt lat="50.515160" lon="3.388645"><time>2026-05-02T19:22:19Z</time></trkpt>
<trkpt lat="50.517207" lon="3.391102"><time>2026-05-02T19:32:19Z</time></trkpt>
<trkpt lat="50.518163" lon="3.392249"><time>2026-05-02T19:42:19Z</time></trkpt>
<trkpt lat="50.520486" lon="3.395037"><time>2026-05-02T19:52:19Z</time></trkpt>
<trkpt lat="50.522019" lon="3.396878"><time>2026-05-02T20:02:19Z</time></trkpt>
<trkpt lat="50.522584" lon="3.397470"><time>2026-05-02T20:12:19Z</time></trkpt>
<trkpt lat="50.523162" lon="3.397974"><time>2026-05-02T20:22:19Z</time></trkpt>
</trkseg></trk>
<trk>
<name>hbtld19</name>
<cmt>d</cmt>
<desc>Lesdain Sentier n°19 </desc>
<link href="https://chemins.be/lesdain/sentier/19"/><trkseg>
<trkpt lat="50.523162" lon="3.397974"><time>2026-05-02T20:22:19Z</time></trkpt>
<trkpt lat="50.523833" lon="3.398560"><time>2026-05-02T20:32:19Z</time></trkpt>
<trkpt lat="50.524085" lon="3.398779"><time>2026-05-02T20:42:19Z</time></trkpt>
<trkpt lat="50.524322" lon="3.398599"><time>2026-05-02T20:52:19Z</time></trkpt>
<trkpt lat="50.524573" lon="3.398848"><time>2026-05-02T21:02:19Z</time></trkpt>
<trkpt lat="50.525105" lon="3.398024"><time>2026-05-02T21:12:19Z</time></trkpt>
<trkpt lat="50.525476" lon="3.398385"><time>2026-05-02T21:22:19Z</time></trkpt>
</trkseg>
</trk>
<trk>
<name>hbtld20</name>
<cmt>q</cmt>
<desc>Lesdain Sentier n°20 </desc>
<link href="https://chemins.be/lesdain/sentier/20"/><trkseg>
<trkpt lat="50.521722" lon="3.398132"><time>2026-05-02T18:12:19Z</time></trkpt>
<trkpt lat="50.521868" lon="3.397315"><time>2026-05-02T18:22:19Z</time></trkpt>
<trkpt lat="50.522047" lon="3.396858"><time>2026-05-02T18:32:19Z</time></trkpt>
</trkseg>
</trk>
<trk>
<name>hbtld21</name>
<cmt>q</cmt>
<desc>Lesdain Sentier n°21 </desc>
<link href="https://chemins.be/lesdain/sentier/21"/><trkseg>
<trkpt lat="50.520021" lon="3.390196"><time>2026-05-02T18:12:19Z</time></trkpt>
<trkpt lat="50.519104" lon="3.393329"><time>2026-05-02T18:22:19Z</time></trkpt>
</trkseg>
</trk>
<trk>
<name>hbtld22</name>
<cmt>v</cmt>
<desc>Lesdain Sentier n°22 </desc>
<link href="https://chemins.be/lesdain/sentier/22"/><trkseg>
<trkpt lat="50.515168" lon="3.388705"><time>2026-05-02T18:12:19Z</time></trkpt>
<trkpt lat="50.515534" lon="3.387539"><time>2026-05-02T18:22:19Z</time></trkpt>
<trkpt lat="50.515983" lon="3.387749"><time>2026-05-02T18:32:19Z</time></trkpt>
<trkpt lat="50.516152" lon="3.386414"><time>2026-05-02T18:42:19Z</time></trkpt>
<trkpt lat="50.516165" lon="3.385212"><time>2026-05-02T18:52:19Z</time></trkpt>
<trkpt lat="50.516674" lon="3.384049"><time>2026-05-02T19:02:19Z</time></trkpt>
<trkpt lat="50.517959" lon="3.380005"><time>2026-05-02T19:12:19Z</time></trkpt>
</trkseg>
</trk>
<trk>
<name>hbtld23</name>
<cmt>q</cmt>
<desc>Lesdain Sentier n°23 </desc>
<link href="https://chemins.be/lesdain/sentier/23"/><trkseg>
<trkpt lat="50.517233" lon="3.382164"><time>2026-05-02T18:12:19Z</time></trkpt>
<trkpt lat="50.515893" lon="3.380066"><time>2026-05-02T18:22:19Z</time></trkpt>
<trkpt lat="50.514949" lon="3.378798"><time>2026-05-02T18:32:19Z</time></trkpt>
</trkseg>
</trk>
<trk>
<name>hbtld24</name>
<cmt>v</cmt>
<desc>Lesdain Sentier n°24 </desc>
<link href="https://chemins.be/lesdain/sentier/24"/><trkseg>
<trkpt lat="50.516555" lon="3.383910"><time>2026-05-02T18:12:19Z</time></trkpt>
<trkpt lat="50.515744" lon="3.382661"><time>2026-05-02T18:22:19Z</time></trkpt>
</trkseg></trk>
<trk>
<name>hbtld24</name>
<cmt>d</cmt>
<desc>Lesdain Sentier n°24 </desc>
<link href="https://chemins.be/lesdain/sentier/24"/><trkseg>
<trkpt lat="50.515744" lon="3.382661"><time>2026-05-02T18:22:19Z</time></trkpt>
<trkpt lat="50.515325" lon="3.382018"><time>2026-05-02T18:32:19Z</time></trkpt>
<trkpt lat="50.514927" lon="3.381688"><time>2026-05-02T18:42:19Z</time></trkpt>
<trkpt lat="50.514877" lon="3.381153"><time>2026-05-02T18:52:19Z</time></trkpt>
</trkseg>
</trk>
<trk>
<name>hbtld25</name>
<cmt>q</cmt>
<desc>Lesdain Sentier n°25 </desc>
<link href="https://chemins.be/lesdain/sentier/25"/><trkseg>
<trkpt lat="50.517471" lon="3.379782"><time>2026-05-02T18:12:19Z</time></trkpt>
<trkpt lat="50.516779" lon="3.381503"><time>2026-05-02T18:22:19Z</time></trkpt>
</trkseg>
</trk>
<trk>
<name>hbtld26</name>
<cmt>r</cmt>
<desc>Lesdain Sentier n°26 Rue des Pâtures</desc>
<link href="https://chemins.be/lesdain/sentier/26"/><trkseg>
<trkpt lat="50.517468" lon="3.379787"><time>2026-05-02T18:12:19Z</time></trkpt>
<trkpt lat="50.516600" lon="3.379486"><time>2026-05-02T18:22:19Z</time></trkpt>
</trkseg>
</trk>
<trk>
<name>hbtld3</name>
<cmt>v</cmt>
<desc>Lesdain Chemin n°3 </desc>
<link href="https://chemins.be/lesdain/chemin/3"/><trkseg>
<trkpt lat="50.521008" lon="3.374303"><time>2026-05-02T18:12:19Z</time></trkpt>
<trkpt lat="50.521698" lon="3.375054"><time>2026-05-02T18:22:19Z</time></trkpt>
<trkpt lat="50.522047" lon="3.374689"><time>2026-05-02T18:32:19Z</time></trkpt>
<trkpt lat="50.523062" lon="3.375633"><time>2026-05-02T18:42:19Z</time></trkpt>
</trkseg>
</trk>
<trk>
<name>hbtld4</name>
<cmt>v</cmt>
<desc>Lesdain Chemin n°4 </desc>
<link href="https://chemins.be/lesdain/chemin/4"/><trkseg>
<trkpt lat="50.522534" lon="3.399106"><time>2026-05-02T18:12:19Z</time></trkpt>
<trkpt lat="50.523592" lon="3.400101"><time>2026-05-02T18:22:19Z</time></trkpt>
<trkpt lat="50.524805" lon="3.401529"><time>2026-05-02T18:32:19Z</time></trkpt>
</trkseg>
</trk>
<trk>
<name>hbtld5</name>
<cmt>r</cmt>
<desc>Lesdain Chemin n°5 Ruelle du Curé</desc>
<link href="https://chemins.be/lesdain/chemin/5"/><trkseg>
<trkpt lat="50.520524" lon="3.389238"><time>2026-05-02T18:12:19Z</time></trkpt>
<trkpt lat="50.520545" lon="3.389358"><time>2026-05-02T18:22:19Z</time></trkpt>
<trkpt lat="50.520324" lon="3.390230"><time>2026-05-02T18:32:19Z</time></trkpt>
</trkseg>
</trk>
<trk>
<name>hbtld8</name>
<cmt>v</cmt>
<desc>Lesdain Chemin n°8 </desc>
<link href="https://chemins.be/lesdain/chemin/8"/><trkseg>
<trkpt lat="50.519688" lon="3.385396"><time>2026-05-02T18:12:19Z</time></trkpt>
<trkpt lat="50.518188" lon="3.384595"><time>2026-05-02T18:22:19Z</time></trkpt>
<trkpt lat="50.517555" lon="3.384101"><time>2026-05-02T18:32:19Z</time></trkpt>
<trkpt lat="50.516574" lon="3.383966"><time>2026-05-02T18:42:19Z</time></trkpt>
</trkseg>
</trk>
<trk>
<name>hbtldi1</name>
<cmt>v</cmt>
<desc>Lesdain Chemin n°i1 </desc>
<link href="https://chemins.be/lesdain/chemin/i1"/><trkseg>
<trkpt lat="50.522459" lon="3.399125"><time>2026-05-02T18:12:19Z</time></trkpt>
<trkpt lat="50.523477" lon="3.397421"><time>2026-05-02T18:22:19Z</time></trkpt>
</trkseg>
</trk>
<trk>
<name>hbtldi2</name>
<cmt>s</cmt>
<desc>Lesdain Chemin n°i2 </desc>
<link href="https://chemins.be/lesdain/chemin/i2"/><trkseg>
<trkpt lat="50.524435" lon="3.387615"><time>2026-05-02T18:12:19Z</time></trkpt>
<trkpt lat="50.524416" lon="3.389319"><time>2026-05-02T18:22:19Z</time></trkpt>
</trkseg>
</trk>
<trk>
<name>hbtldi3</name>
<cmt>s</cmt>
<desc>Lesdain Sentier n°i3 </desc>
<link href="https://chemins.be/lesdain/sentier/i3"/><trkseg>
<trkpt lat="50.521516" lon="3.384500"><time>2026-05-02T18:12:19Z</time></trkpt>
<trkpt lat="50.523486" lon="3.385436"><time>2026-05-02T18:22:19Z</time></trkpt>
</trkseg>
</trk>
<trk>
<name>hbtldi4</name>
<cmt>v</cmt>
<desc>Lesdain Sentier n°i4 </desc>
<link href="https://chemins.be/lesdain/sentier/i4"/><trkseg>
<trkpt lat="50.521870" lon="3.393456"><time>2026-05-02T18:12:19Z</time></trkpt>
<trkpt lat="50.522514" lon="3.392143"><time>2026-05-02T18:22:19Z</time></trkpt>
<trkpt lat="50.521934" lon="3.391500"><time>2026-05-02T18:32:19Z</time></trkpt>
</trkseg>
</trk>
<trk>
<name>hbtldi5</name>
<cmt>v</cmt>
<desc>Lesdain Chemin n°i5 </desc>
<link href="https://chemins.be/lesdain/chemin/i5"/><trkseg>
<trkpt lat="50.522339" lon="3.380688"><time>2026-05-02T18:12:19Z</time></trkpt>
<trkpt lat="50.521329" lon="3.379890"><time>2026-05-02T18:22:19Z</time></trkpt>
</trkseg>
</trk>
<trk>
<name>hbtldp1</name>
<cmt>r</cmt>
<desc>Lesdain Chemin particulier n°p1 Rue Grande Couture</desc>
<link href="https://chemins.be/lesdain/chemin/p1"/><trkseg>
<trkpt lat="50.520325" lon="3.390232"><time>2026-05-02T18:12:19Z</time></trkpt>
<trkpt lat="50.520809" lon="3.391207"><time>2026-05-02T18:22:19Z</time></trkpt>
</trkseg></trk>
<trk>
<name>hbtldp1</name>
<cmt>v</cmt>
<desc>Lesdain Chemin particulier n°p1 Rue Grande Couture</desc>
<link href="https://chemins.be/lesdain/chemin/p1"/><trkseg>
<trkpt lat="50.520809" lon="3.391207"><time>2026-05-02T18:22:19Z</time></trkpt>
<trkpt lat="50.521437" lon="3.392475"><time>2026-05-02T18:32:19Z</time></trkpt>
<trkpt lat="50.521849" lon="3.393382"><time>2026-05-02T18:42:19Z</time></trkpt>
<trkpt lat="50.522393" lon="3.394712"><time>2026-05-02T18:52:19Z</time></trkpt>
<trkpt lat="50.522858" lon="3.395881"><time>2026-05-02T19:02:19Z</time></trkpt>
<trkpt lat="50.523102" lon="3.396467"><time>2026-05-02T19:12:19Z</time></trkpt>
<trkpt lat="50.523135" lon="3.396562"><time>2026-05-02T19:22:19Z</time></trkpt>
<trkpt lat="50.523182" lon="3.396678"><time>2026-05-02T19:32:19Z</time></trkpt>
<trkpt lat="50.523438" lon="3.397312"><time>2026-05-02T19:42:19Z</time></trkpt>
<trkpt lat="50.524810" lon="3.401607"><time>2026-05-02T19:52:19Z</time></trkpt>
</trkseg>
</trk>
<trk>
<name>hbtldp2</name>
<cmt>r</cmt>
<desc>Lesdain Chemin particulier n°p2 Rue des Pépinières</desc>
<link href="https://chemins.be/lesdain/chemin/p2"/><trkseg>
<trkpt lat="50.520948" lon="3.387304"><time>2026-05-02T18:12:19Z</time></trkpt>
<trkpt lat="50.521284" lon="3.385715"><time>2026-05-02T18:22:19Z</time></trkpt>
<trkpt lat="50.522585" lon="3.379553"><time>2026-05-02T18:32:19Z</time></trkpt>
</trkseg>
</trk>
<trk>
<name>hbtldp3</name>
<cmt>r</cmt>
<desc>Lesdain Chemin particulier n°p3 </desc>
<link href="https://chemins.be/lesdain/chemin/p3"/><trkseg>
<trkpt lat="50.519903" lon="3.385092"><time>2026-05-02T18:12:19Z</time></trkpt>
<trkpt lat="50.521264" lon="3.385701"><time>2026-05-02T18:22:19Z</time></trkpt>
</trkseg>
</trk>
<trk>
<name>hbtldp4</name>
<cmt>v</cmt>
<desc>Lesdain Sentier particulier n°p4 </desc>
<link href="https://chemins.be/lesdain/sentier/p4"/><trkseg>
<trkpt lat="50.521862" lon="3.382956"><time>2026-05-02T18:12:19Z</time></trkpt>
<trkpt lat="50.522298" lon="3.383123"><time>2026-05-02T18:22:19Z</time></trkpt>
<trkpt lat="50.523836" lon="3.383853"><time>2026-05-02T18:32:19Z</time></trkpt>
<trkpt lat="50.524607" lon="3.384233"><time>2026-05-02T18:42:19Z</time></trkpt>
</trkseg>
</trk>
<trk>
<name>hbtldp5</name>
<cmt>v</cmt>
<desc>Lesdain Chemin particulier n°p5 </desc>
<link href="https://chemins.be/lesdain/chemin/p5"/><trkseg>
<trkpt lat="50.518292" lon="3.389224"><time>2026-05-02T18:12:19Z</time></trkpt>
<trkpt lat="50.514398" lon="3.386840"><time>2026-05-02T18:22:19Z</time></trkpt>
</trkseg>
</trk>
</gpx>